Time;durP1;ratioP1;P1;durP2;ratioP2;P2;SDS_P1;SDS_P2;PMS_P1;PMS_P2;Temp;Humidity;BMP_temperature;BMP_pressure;BME280_temperature;BME280_humidity;BME280_pressure;Samples;Min_cycle;Max_cycle;Signal;HPM_P1;HPM_P2
2022/03/01 00:01:24;;;;;;;;;36.25;31.50;;;;;9.45;41.98;102183.13;5098054;27;45250;-73
2022/03/01 00:03:50;;;;;;;;;35.00;29.50;;;;;9.58;41.81;102198.06;5098008;27;45480;-76
2022/03/01 00:06:15;;;;;;;;;40.75;31.00;;;;;9.28;41.81;102160.00;5097659;27;45444;-78
2022/03/01 00:08:40;;;;;;;;;41.25;34.75;;;;;9.04;41.63;102126.75;5097196;27;45441;-78
2022/03/01 00:11:06;;;;;;;;;45.75;33.50;;;;;9.29;42.13;102176.06;5097321;27;46158;-76
2022/03/01 00:13:31;;;;;;;;;42.25;33.50;;;;;9.29;42.30;102192.09;5098062;27;45372;-79
2022/03/01 00:15:56;;;;;;;;;42.25;30.50;;;;;9.18;41.41;102174.56;5097524;27;45198;-76
2022/03/01 00:18:22;;;;;;;;;37.75;27.75;;;;;9.31;41.32;102202.84;5098199;27;45361;-80
2022/03/01 00:20:47;;;;;;;;;34.00;27.75;;;;;9.22;41.54;102196.16;5098047;27;45453;-80
2022/03/01 00:23:13;;;;;;;;;37.75;30.00;;;;;9.06;41.68;102171.22;5098037;27;45400;-78
2022/03/01 00:25:38;;;;;;;;;27.75;27.75;;;;;9.04;42.37;102172.06;5097573;27;45408;-76
2022/03/01 00:28:04;;;;;;;;;36.50;28.25;;;;;9.20;42.08;102197.81;5097653;27;45787;-78
2022/03/01 00:30:29;;;;;;;;;34.25;28.75;;;;;9.05;42.25;102178.31;5097731;27;45294;-77
2022/03/01 00:32:54;;;;;;;;;32.25;25.75;;;;;8.98;42.64;102150.38;5094826;27;45500;-74
2022/03/01 00:35:20;;;;;;;;;37.25;30.25;;;;;9.19;42.15;102184.41;5097411;27;46291;-80
2022/03/01 00:37:45;;;;;;;;;31.75;28.25;;;;;8.79;42.70;102120.88;5078893;27;46125;-79
2022/03/01 00:40:11;;;;;;;;;35.25;32.00;;;;;8.88;42.78;102140.06;5097265;27;45403;-79
2022/03/01 00:42:37;;;;;;;;;33.75;29.00;;;;;9.08;41.89;102166.91;5079481;27;45346;-79
2022/03/01 00:45:02;;;;;;;;;29.50;28.00;;;;;9.18;42.61;102175.47;5098492;27;46685;-79
2022/03/01 00:47:28;;;;;;;;;32.00;31.50;;;;;9.19;42.80;102171.09;5097950;27;45417;-79
2022/03/01 00:49:53;;;;;;;;;44.00;34.25;;;;;8.96;42.56;102148.44;5097560;27;45300;-75
2022/03/01 00:52:19;;;;;;;;;43.00;35.00;;;;;9.16;42.16;102189.56;5097683;27;45499;-79
2022/03/01 00:54:44;;;;;;;;;46.75;33.00;;;;;9.08;43.01;102183.81;5096956;27;45361;-75
2022/03/01 00:57:09;;;;;;;;;41.00;32.50;;;;;9.03;43.74;102186.22;5115803;27;45440;-75
2022/03/01 00:59:35;;;;;;;;;34.75;29.75;;;;;8.46;43.76;102108.44;5113106;27;45494;-77
2022/03/01 01:02:00;;;;;;;;;39.25;33.50;;;;;8.76;43.48;102148.28;5097418;27;45300;-77
2022/03/01 01:04:25;;;;;;;;;47.50;35.75;;;;;8.49;43.31;102113.00;5096878;27;46245;-79
2022/03/01 01:06:51;;;;;;;;;42.00;28.00;;;;;8.98;43.36;102195.69;5096752;27;45534;-79
2022/03/01 01:09:16;;;;;;;;;35.50;27.50;;;;;8.99;42.79;102189.56;5091729;27;45331;-79
2022/03/01 01:11:42;;;;;;;;;39.00;34.00;;;;;8.93;43.89;102173.22;5106312;27;45484;-79
2022/03/01 01:14:08;;;;;;;;;35.00;31.00;;;;;8.82;43.09;102143.28;5116432;27;46233;-75
2022/03/01 01:16:33;;;;;;;;;40.75;31.00;;;;;8.96;43.64;102170.72;5116830;27;45436;-79
2022/03/01 01:18:59;;;;;;;;;38.75;30.00;;;;;8.89;42.83;102149.88;5107983;27;45488;-78
2022/03/01 01:22:39;;;;;;;;;40.50;34.25;;;;;8.96;43.25;102156.44;5104880;27;45636;-77
2022/03/01 01:24:09;;;;;;;;;39.75;30.75;;;;;8.89;44.04;102147.19;5116137;27;45596;-78
2022/03/01 01:26:35;;;;;;;;;36.00;32.00;;;;;8.73;43.71;102126.78;5116435;27;45354;-78
2022/03/01 01:29:00;;;;;;;;;38.50;32.25;;;;;8.90;43.74;102154.38;5116510;27;45417;-79
2022/03/01 01:31:25;;;;;;;;;34.75;30.75;;;;;9.05;43.66;102167.63;5116694;27;45353;-77
2022/03/01 01:33:51;;;;;;;;;37.75;34.50;;;;;9.03;43.05;102177.31;5084460;27;46192;-79
2022/03/01 01:36:16;;;;;;;;;48.00;34.25;;;;;8.64;43.18;102108.53;5100795;27;45487;-78
2022/03/01 01:38:41;;;;;;;;;38.75;32.25;;;;;8.81;44.06;102136.13;5110967;27;45485;-76
2022/03/01 01:41:07;;;;;;;;;37.00;32.25;;;;;8.93;44.04;102157.22;5116668;27;45459;-75
2022/03/01 01:43:32;;;;;;;;;45.25;34.25;;;;;8.94;44.31;102153.72;5116177;27;46096;-75
2022/03/01 01:45:57;;;;;;;;;31.75;28.25;;;;;8.40;44.02;102065.44;5117045;27;45398;-76
2022/03/01 01:48:23;;;;;;;;;33.50;27.75;;;;;8.80;43.99;102146.69;5119030;27;45929;-79
2022/03/01 01:50:48;;;;;;;;;40.75;32.50;;;;;8.94;44.37;102169.72;5105740;27;45507;-77
2022/03/01 01:53:14;;;;;;;;;34.25;30.25;;;;;8.62;43.73;102109.28;5096789;27;45358;-78
2022/03/01 01:55:39;;;;;;;;;43.75;32.75;;;;;8.74;43.92;102133.03;5096278;27;45363;-80
2022/03/01 01:58:05;;;;;;;;;43.00;33.75;;;;;8.91;44.13;102166.88;5096920;27;45465;-77
2022/03/01 02:00:30;;;;;;;;;38.00;30.00;;;;;8.53;43.76;102099.03;5096969;27;45608;-79
2022/03/01 02:02:56;;;;;;;;;40.25;31.50;;;;;8.73;43.23;102150.78;5108203;27;46061;-78
2022/03/01 02:05:21;;;;;;;;;35.25;31.00;;;;;8.93;43.29;102183.88;5116240;27;45316;-81
2022/03/01 02:07:48;;;;;;;;;33.25;30.50;;;;;8.59;43.68;102125.09;5115823;27;45311;-76
2022/03/01 02:10:14;;;;;;;;;41.00;34.75;;;;;8.97;44.33;102183.19;5115868;27;45417;-78
2022/03/01 02:12:40;;;;;;;;;38.50;32.25;;;;;8.98;43.24;102168.13;5115647;27;46385;-80
2022/03/01 02:15:05;;;;;;;;;31.25;30.75;;;;;9.00;43.30;102172.72;5097488;27;45508;-81
2022/03/01 02:17:31;;;;;;;;;33.75;31.75;;;;;8.92;43.22;102149.13;5115680;27;45371;-77
2022/03/01 02:19:57;;;;;;;;;45.50;30.25;;;;;8.81;43.67;102137.84;5115963;27;45488;-80
2022/03/01 02:22:22;;;;;;;;;39.50;30.00;;;;;8.85;43.67;102145.22;5115665;27;46129;-80
2022/03/01 02:24:48;;;;;;;;;42.25;34.00;;;;;8.92;43.35;102160.69;5115327;27;45438;-78
2022/03/01 02:27:13;;;;;;;;;43.50;34.25;;;;;8.76;43.33;102126.97;5115599;27;46080;-80
2022/03/01 02:29:39;;;;;;;;;41.25;35.75;;;;;8.92;44.20;102159.78;5115372;27;45622;-79
2022/03/01 02:32:07;;;;;;;;;43.00;31.50;;;;;8.99;44.34;102170.88;5100827;27;45539;-79
2022/03/01 02:34:33;;;;;;;;;41.25;27.25;;;;;9.01;44.12;102161.22;5095372;27;45436;-78
2022/03/01 02:36:59;;;;;;;;;49.50;34.25;;;;;8.99;43.82;102165.56;5102714;27;45825;-77
2022/03/01 02:39:24;;;;;;;;;45.75;34.50;;;;;8.29;44.32;102054.16;5115200;27;45413;-77
2022/03/01 02:41:50;;;;;;;;;37.00;30.25;;;;;8.67;43.80;102121.09;5115202;27;45526;-76
2022/03/01 02:44:15;;;;;;;;;43.50;34.00;;;;;8.79;44.05;102131.53;5115327;27;45455;-79
2022/03/01 02:46:41;;;;;;;;;45.75;35.50;;;;;8.60;44.34;102113.63;5095782;27;45437;-77
2022/03/01 02:49:08;;;;;;;;;48.75;37.00;;;;;8.92;44.51;102168.69;5097130;27;45463;-78
2022/03/01 02:51:34;;;;;;;;;41.25;34.50;;;;;8.78;44.66;102153.72;5106788;27;46624;-80
2022/03/01 02:54:00;;;;;;;;;39.25;34.25;;;;;8.20;43.86;102061.63;5078654;27;45359;-80
2022/03/01 02:56:27;;;;;;;;;38.00;30.00;;;;;8.83;43.73;102163.78;5113999;27;45462;-79
2022/03/01 02:58:55;;;;;;;;;36.25;34.00;;;;;8.59;44.59;102125.09;5104283;27;45536;-77
2022/03/01 03:01:23;;;;;;;;;37.50;26.75;;;;;8.51;44.82;102132.63;5095743;27;47193;-78
2022/03/01 03:03:49;;;;;;;;;40.25;32.75;;;;;8.39;44.27;102119.50;5096517;27;45355;-78
2022/03/01 03:06:15;;;;;;;;;41.75;35.75;;;;;8.65;44.25;102165.41;5095521;27;45385;-76
2022/03/01 03:08:40;;;;;;;;;39.50;30.00;;;;;8.76;44.14;102189.97;5095276;27;45317;-78
2022/03/01 03:11:07;;;;;;;;;43.50;33.25;;;;;8.69;43.54;102178.06;5095281;27;46487;-76
2022/03/01 03:13:33;;;;;;;;;43.75;36.75;;;;;8.40;44.30;102115.13;5100686;27;45438;-79
2022/03/01 03:15:58;;;;;;;;;41.50;30.75;;;;;8.71;44.28;102173.75;5101143;27;45584;-78
2022/03/01 03:18:23;;;;;;;;;42.00;33.00;;;;;8.73;43.50;102176.47;5098710;27;45326;-79
2022/03/01 03:20:49;;;;;;;;;31.25;31.25;;;;;8.73;44.50;102181.81;5114631;27;45518;-80
2022/03/01 03:23:15;;;;;;;;;47.25;30.75;;;;;8.64;44.25;102151.16;5114726;27;45456;-79
2022/03/01 03:25:40;;;;;;;;;35.00;33.00;;;;;8.60;43.81;102157.16;5114453;27;45525;-78
2022/03/01 03:28:05;;;;;;;;;41.25;34.25;;;;;8.46;44.47;102137.72;5115096;27;45438;-75
2022/03/01 03:30:31;;;;;;;;;37.75;34.25;;;;;8.39;44.68;102116.84;5114351;27;46060;-79
2022/03/01 03:32:56;;;;;;;;;35.00;33.00;;;;;8.59;44.65;102160.63;5114519;27;45503;-78
2022/03/01 03:35:22;;;;;;;;;42.50;35.25;;;;;8.57;44.35;102148.06;5114526;27;45321;-76
2022/03/01 03:37:48;;;;;;;;;35.75;28.75;;;;;8.69;43.79;102174.50;5114752;27;45439;-78
2022/03/01 03:40:13;;;;;;;;;40.25;30.75;;;;;8.69;44.96;102172.72;5114580;27;45586;-79
2022/03/01 03:42:39;;;;;;;;;46.25;35.25;;;;;8.47;44.49;102125.31;5114456;27;45422;-75
2022/03/01 03:45:05;;;;;;;;;34.50;33.75;;;;;8.52;44.82;102128.25;5083090;27;45891;-78
2022/03/01 03:47:31;;;;;;;;;36.50;30.75;;;;;8.78;43.84;102167.94;5094018;27;45461;-76
2022/03/01 03:49:57;;;;;;;;;36.50;34.00;;;;;8.66;44.11;102141.53;5094543;27;45566;-79
2022/03/01 03:52:22;;;;;;;;;48.25;34.25;;;;;8.55;45.23;102139.09;5095966;27;45570;-80
2022/03/01 03:54:48;;;;;;;;;33.25;32.75;;;;;8.60;44.99;102158.91;5096475;27;45597;-77
2022/03/01 03:57:13;;;;;;;;;55.50;38.50;;;;;8.51;45.04;102140.63;5095606;27;45398;-76
2022/03/01 03:59:39;;;;;;;;;39.75;31.25;;;;;8.43;44.93;102136.59;5095248;27;49764;-79
2022/03/01 04:02:06;;;;;;;;;42.50;35.00;;;;;8.37;45.38;102130.91;5094695;27;45357;-76
2022/03/01 04:04:32;;;;;;;;;37.50;34.00;;;;;8.33;45.33;102127.13;5091109;27;45468;-70
2022/03/01 04:06:57;;;;;;;;;43.50;39.50;;;;;8.46;44.89;102168.75;5095982;27;45374;-79
2022/03/01 04:09:23;;;;;;;;;54.25;38.50;;;;;8.27;45.13;102134.78;5098652;27;45570;-80
2022/03/01 04:11:48;;;;;;;;;41.50;30.75;;;;;7.98;45.26;102059.47;5098608;27;45362;-80
2022/03/01 04:14:14;;;;;;;;;38.75;35.75;;;;;8.20;45.68;102108.63;5098808;27;45399;-81
2022/03/01 04:16:42;;;;;;;;;44.50;32.50;;;;;8.27;45.37;102109.06;5101445;27;45417;-75
2022/03/01 04:19:11;;;;;;;;;36.25;32.50;;;;;8.43;45.46;102136.59;5118390;27;45491;-80
2022/03/01 04:21:37;;;;;;;;;51.00;34.25;;;;;8.43;45.79;102141.94;5102405;27;45418;-78
2022/03/01 04:24:03;;;;;;;;;29.75;24.50;;;;;8.20;44.71;102100.63;5097641;27;45428;-80
2022/03/01 04:26:28;;;;;;;;;29.00;29.00;;;;;8.53;44.91;102144.31;5097684;27;45507;-80
2022/03/01 04:28:54;;;;;;;;;43.25;35.50;;;;;8.34;45.33;102120.09;5097285;27;45393;-80
2022/03/01 04:31:20;;;;;;;;;38.50;31.50;;;;;8.19;44.98;102106.81;5097621;27;45519;-78
2022/03/01 04:33:46;;;;;;;;;32.50;29.00;;;;;8.39;45.10;102166.53;5097924;27;45336;-78
2022/03/01 04:36:15;;;;;;;;;37.25;33.75;;;;;8.46;45.63;102163.41;5092687;27;45299;-79
2022/03/01 04:38:41;;;;;;;;;47.25;30.00;;;;;8.26;44.65;102120.53;5097616;27;45489;-78
2022/03/01 04:41:06;;;;;;;;;38.25;35.00;;;;;7.92;45.25;102054.72;5097268;27;45460;-78
2022/03/01 04:43:33;;;;;;;;;32.75;29.50;;;;;8.43;44.15;102136.59;5078986;27;45428;-78
2022/03/01 04:45:58;;;;;;;;;33.50;28.25;;;;;8.47;44.48;102149.28;5097899;27;45524;-81
2022/03/01 04:48:24;;;;;;;;;40.75;34.25;;;;;8.52;44.91;102158.44;5097235;27;45590;-78
2022/03/01 04:50:51;;;;;;;;;38.25;30.25;;;;;8.51;45.08;102158.38;5104598;27;45619;-77
2022/03/01 04:53:16;;;;;;;;;45.75;33.25;;;;;8.30;44.74;102129.66;5117464;27;45375;-79
2022/03/01 04:55:42;;;;;;;;;45.75;33.00;;;;;8.47;45.17;102152.84;5118331;27;45391;-78
2022/03/01 04:58:08;;;;;;;;;44.25;35.00;;;;;8.47;44.97;102157.28;5118559;27;45452;-79
2022/03/01 05:00:33;;;;;;;;;49.50;34.50;;;;;8.48;45.68;102156.47;5118194;27;45476;-80
2022/03/01 05:02:59;;;;;;;;;43.75;33.50;;;;;8.37;45.76;102129.16;5080603;27;45253;-79
2022/03/01 05:05:24;;;;;;;;;45.00;37.25;;;;;8.53;46.14;102154.97;5097697;27;45440;-80
2022/03/01 05:07:49;;;;;;;;;42.75;35.50;;;;;8.51;45.52;102150.38;5097171;27;45568;-79
2022/03/01 05:10:18;;;;;;;;;36.50;32.00;;;;;8.38;46.21;102117.69;5096746;27;45347;-76
2022/03/01 05:12:49;;;;;;;;;40.75;36.75;;;;;8.44;45.52;102120.72;5097415;27;45584;-80
2022/03/01 05:15:15;;;;;;;;;41.50;36.50;;;;;8.50;45.63;102130.81;5078777;27;45646;-81
2022/03/01 05:17:41;;;;;;;;;39.00;34.50;;;;;8.44;45.71;102128.72;5097090;27;45416;-78
2022/03/01 05:20:07;;;;;;;;;47.50;38.00;;;;;8.51;45.25;102129.97;5095934;27;45350;-79
2022/03/01 05:22:33;;;;;;;;;49.75;36.25;;;;;8.60;45.79;102153.56;5097389;27;45508;-78
2022/03/01 05:24:59;;;;;;;;;44.50;34.00;;;;;8.61;45.52;102150.06;5095927;27;45518;-79
2022/03/01 05:27:24;;;;;;;;;41.25;35.00;;;;;8.64;45.52;102150.25;5117573;27;47026;-81
2022/03/01 05:29:50;;;;;;;;;42.25;34.75;;;;;8.32;45.08;102096.03;5117256;27;45434;-77
2022/03/01 05:32:16;;;;;;;;;44.75;31.00;;;;;8.51;44.50;102126.41;5101977;27;45389;-78
2022/03/01 05:34:41;;;;;;;;;37.50;30.00;;;;;8.12;44.62;102061.19;5097200;27;45492;-78
2022/03/01 05:37:06;;;;;;;;;40.25;32.00;;;;;8.64;44.48;102134.25;5096718;27;48094;-81
2022/03/01 05:39:32;;;;;;;;;42.50;33.75;;;;;8.64;45.34;102136.91;5091583;27;45382;-78
2022/03/01 05:41:57;;;;;;;;;46.25;34.75;;;;;8.65;45.08;102145.00;5111061;27;45468;-81
2022/03/01 05:44:22;;;;;;;;;41.00;33.00;;;;;8.65;44.74;102153.00;5116861;27;45427;-78
2022/03/01 05:46:47;;;;;;;;;44.50;32.75;;;;;8.66;45.71;102141.53;5116386;27;45301;-76
2022/03/01 05:49:13;;;;;;;;;44.75;35.00;;;;;8.66;45.17;102141.53;5116490;27;45345;-80
2022/03/01 05:51:39;;;;;;;;;48.25;33.75;;;;;8.60;44.91;102153.56;5116428;27;45301;-76
2022/03/01 05:54:04;;;;;;;;;50.00;37.50;;;;;8.55;44.99;102133.75;5116558;27;45421;-77
2022/03/01 05:56:30;;;;;;;;;46.50;38.00;;;;;8.64;45.60;102144.91;5116764;27;45400;-78
2022/03/01 05:58:56;;;;;;;;;39.75;35.00;;;;;8.57;44.67;102134.75;5117543;27;46052;-81
2022/03/01 06:01:22;;;;;;;;;37.75;32.25;;;;;8.51;44.48;102132.63;5120908;27;45339;-80
2022/03/01 06:03:47;;;;;;;;;41.75;34.00;;;;;8.40;45.10;102100.03;5117276;27;45549;-81
2022/03/01 06:06:12;;;;;;;;;41.00;32.25;;;;;8.57;44.67;102140.06;5098152;27;47075;-83
2022/03/01 06:08:38;;;;;;;;;49.50;34.25;;;;;8.11;45.76;102077.06;5116069;27;45454;-80
2022/03/01 06:11:03;;;;;;;;;39.75;34.50;;;;;8.46;45.07;102140.38;5115613;27;45359;-75
2022/03/01 06:13:28;;;;;;;;;33.50;32.25;;;;;8.43;45.14;102136.59;5097838;27;45482;-79
2022/03/01 06:15:54;;;;;;;;;36.00;34.00;;;;;8.28;45.76;102117.97;5097785;27;48368;-78
2022/03/01 06:18:19;;;;;;;;;36.00;33.50;;;;;8.28;45.78;102123.28;5115808;27;45424;-82
2022/03/01 06:20:45;;;;;;;;;43.25;37.00;;;;;8.43;45.10;102148.19;5116265;27;45313;-73
2022/03/01 06:23:11;;;;;;;;;42.50;37.00;;;;;8.38;44.94;102151.38;5084375;27;45393;-79
2022/03/01 06:25:36;;;;;;;;;17.00;15.75;;;;;7.90;45.24;102071.41;5115824;27;46859;-80
2022/03/01 06:28:02;;;;;;;;;46.00;34.75;;;;;8.28;45.97;102157.91;5098026;27;45325;-79
2022/03/01 06:30:27;;;;;;;;;39.50;34.00;;;;;8.16;45.38;102135.91;5114871;27;45288;-80
2022/03/01 06:32:53;;;;;;;;;46.00;36.00;;;;;8.33;46.29;102155.50;5096194;27;45625;-80
2022/03/01 06:35:18;;;;;;;;;49.75;35.25;;;;;7.64;46.30;102048.59;5096176;27;46209;-82
2022/03/01 06:37:44;;;;;;;;;45.75;36.75;;;;;7.92;45.79;102083.09;5108983;27;45232;-78
2022/03/01 06:40:12;;;;;;;;;41.50;37.25;;;;;8.50;45.66;102176.09;5115159;27;45401;-79
2022/03/01 06:42:38;;;;;;;;;38.25;31.50;;;;;8.46;46.27;102163.41;5115968;27;45385;-77
2022/03/01 06:45:04;;;;;;;;;35.50;31.25;;;;;8.36;45.77;102129.97;5115104;27;46469;-72
2022/03/01 06:47:30;;;;;;;;;54.50;39.25;;;;;8.38;45.31;102116.75;5108994;27;45428;-80
2022/03/01 06:49:55;;;;;;;;;38.50;31.75;;;;;8.56;45.64;102148.88;5097072;27;45395;-81
2022/03/01 06:52:20;;;;;;;;;37.25;31.50;;;;;8.52;45.70;102144.22;5115869;27;45339;-79
2022/03/01 06:54:46;;;;;;;;;49.25;40.00;;;;;8.49;45.26;102151.19;5111162;27;45847;-80
2022/03/01 06:57:11;;;;;;;;;47.75;31.75;;;;;8.17;46.08;102108.47;5096462;27;45289;-82
2022/03/01 06:59:37;;;;;;;;;38.50;32.00;;;;;8.67;45.98;102185.06;5096697;27;45424;-81
2022/03/01 07:02:03;;;;;;;;;43.00;33.25;;;;;8.72;44.75;102180.91;5097210;27;45576;-79
2022/03/01 07:04:28;;;;;;;;;51.00;40.75;;;;;8.76;44.93;102176.66;5096359;27;46379;-80
2022/03/01 07:06:54;;;;;;;;;40.50;36.75;;;;;8.75;45.09;102188.16;5094997;27;45355;-78
2022/03/01 07:09:20;;;;;;;;;39.25;33.50;;;;;8.77;44.31;102186.50;5090926;27;45547;-82
2022/03/01 07:11:46;;;;;;;;;46.25;34.25;;;;;8.80;44.81;102190.25;5098339;27;45509;-81
2022/03/01 07:14:11;;;;;;;;;48.00;34.50;;;;;8.68;43.81;102186.91;5096314;27;47291;-78
2022/03/01 07:16:36;;;;;;;;;49.00;36.00;;;;;8.79;44.42;102191.09;5114574;27;45597;-78
2022/03/01 07:19:02;;;;;;;;;40.75;33.25;;;;;8.64;44.53;102159.13;5115688;27;45529;-74
2022/03/01 07:21:27;;;;;;;;;45.50;37.75;;;;;8.78;44.13;102197.25;5117044;27;45357;-81
2022/03/01 07:23:53;;;;;;;;;45.50;36.75;;;;;8.73;43.93;102188.06;5114966;27;45434;-80
2022/03/01 07:26:18;;;;;;;;;48.75;36.75;;;;;8.55;44.88;102161.28;5096902;27;45761;-81
2022/03/01 07:28:43;;;;;;;;;39.75;30.50;;;;;8.70;44.97;102166.59;5101647;27;45555;-79
2022/03/01 07:31:09;;;;;;;;;35.00;33.25;;;;;8.80;44.67;102181.34;5114873;27;45321;-79
2022/03/01 07:33:34;;;;;;;;;42.50;34.00;;;;;8.79;44.60;102183.09;5094821;27;45425;-80
2022/03/01 07:36:00;;;;;;;;;41.75;33.00;;;;;8.83;44.16;102185.09;5094702;27;45431;-74
2022/03/01 07:38:26;;;;;;;;;38.75;28.00;;;;;8.75;44.33;102174.84;5094839;27;45260;-78
2022/03/01 07:40:51;;;;;;;;;42.00;34.50;;;;;8.69;44.81;102169.16;5076098;27;45569;-80
2022/03/01 07:43:17;;;;;;;;;43.00;35.50;;;;;8.84;44.19;102186.00;5102740;27;45540;-80
2022/03/01 07:45:42;;;;;;;;;50.50;35.75;;;;;8.27;44.50;102070.88;5119513;27;45421;-77
2022/03/01 07:48:07;;;;;;;;;49.00;34.25;;;;;8.87;44.17;102175.53;5118625;27;45452;-80
2022/03/01 07:50:34;;;;;;;;;41.75;33.00;;;;;8.11;44.03;102040.72;5101251;27;45504;-79
2022/03/01 07:53:00;;;;;;;;;40.25;34.75;;;;;8.88;44.37;102174.69;5098139;27;45390;-77
2022/03/01 07:55:26;;;;;;;;;38.50;34.50;;;;;8.89;45.09;102171.19;5098450;27;45348;-71
2022/03/01 07:57:52;;;;;;;;;46.75;34.75;;;;;8.74;44.93;102149.00;5089767;27;45758;-80
2022/03/01 08:00:19;;;;;;;;;41.75;31.00;;;;;8.81;45.01;102145.84;5118203;27;45462;-78
2022/03/01 08:02:44;;;;;;;;;44.25;35.00;;;;;9.14;44.44;102189.50;5119108;27;45474;-80
2022/03/01 08:05:10;;;;;;;;;51.75;39.00;;;;;9.19;43.95;102188.00;5086744;27;45444;-78
2022/03/01 08:07:36;;;;;;;;;46.25;38.75;;;;;8.71;44.22;102093.81;5109720;27;45347;-76
2022/03/01 08:10:02;;;;;;;;;45.50;35.00;;;;;8.91;43.82;102131.28;5101253;27;45263;-77
2022/03/01 08:12:28;;;;;;;;;44.75;36.75;;;;;9.04;44.38;102157.78;5095726;27;46937;-80
2022/03/01 08:14:53;;;;;;;;;35.75;29.25;;;;;9.29;44.31;102192.09;5098600;27;45323;-80
2022/03/01 08:17:19;;;;;;;;;51.00;37.25;;;;;8.09;44.97;101977.59;5105177;27;45412;-77
2022/03/01 08:19:46;;;;;;;;;37.75;34.00;;;;;9.42;43.60;102196.34;5118296;27;45633;-80
2022/03/01 08:22:11;;;;;;;;;49.50;36.75;;;;;9.03;44.56;102146.22;5111316;27;45351;-80
2022/03/01 08:24:37;;;;;;;;;39.50;35.25;;;;;9.15;43.81;102153.97;5097337;27;45369;-79
2022/03/01 08:27:02;;;;;;;;;44.75;32.50;;;;;9.25;43.87;102152.72;5117519;27;45380;-78
2022/03/01 08:29:29;;;;;;;;;46.75;36.50;;;;;9.23;43.90;102147.31;5104663;27;45456;-75
2022/03/01 08:31:54;;;;;;;;;39.00;35.25;;;;;9.54;44.33;102194.31;5109647;27;45684;-78
2022/03/01 08:34:20;;;;;;;;;38.25;33.75;;;;;9.65;43.56;102200.25;5117061;27;45294;-80
2022/03/01 08:36:45;;;;;;;;;40.25;34.25;;;;;9.40;43.27;102140.25;5117521;27;45559;-78
2022/03/01 08:39:10;;;;;;;;;57.50;43.00;;;;;9.55;43.16;102160.53;5117430;27;45265;-80
2022/03/01 08:41:36;;;;;;;;;43.75;37.00;;;;;9.62;43.72;102165.38;5117135;27;45956;-81
2022/03/01 08:44:02;;;;;;;;;51.50;38.25;;;;;9.74;43.08;102184.69;5116899;27;45396;-80
2022/03/01 08:46:27;;;;;;;;;51.75;38.00;;;;;9.62;44.07;102153.78;5098858;27;45280;-79
2022/03/01 08:48:53;;;;;;;;;45.25;32.75;;;;;9.84;43.33;102188.78;5117106;27;45475;-79
2022/03/01 08:51:22;;;;;;;;;43.75;29.75;;;;;9.77;43.12;102179.53;5116796;27;45966;-79
2022/03/01 08:53:49;;;;;;;;;52.75;41.25;;;;;9.62;43.11;102138.72;5115433;27;45497;-78
2022/03/01 08:56:15;;;;;;;;;42.25;34.50;;;;;9.92;43.35;102190.09;5097969;27;45500;-80
2022/03/01 08:58:43;;;;;;;;;42.25;35.50;;;;;9.68;43.63;102143.44;5117105;27;45467;-77
2022/03/01 09:01:09;;;;;;;;;45.75;37.50;;;;;10.05;42.68;102209.44;5100529;27;45347;-76
2022/03/01 09:03:35;;;;;;;;;56.00;38.75;;;;;9.98;42.83;102200.16;5092072;27;45926;-80
2022/03/01 09:06:02;;;;;;;;;51.25;37.50;;;;;10.00;42.29;102213.59;5079174;27;45560;-78
2022/03/01 09:08:28;;;;;;;;;47.50;39.25;;;;;9.74;42.85;102160.69;5098033;27;45361;-81
2022/03/01 09:10:53;;;;;;;;;44.75;36.00;;;;;9.83;42.74;102173.59;5099520;27;45495;-79
2022/03/01 09:13:18;;;;;;;;;47.50;34.75;;;;;9.45;43.22;102110.22;5101685;27;45395;-69
2022/03/01 09:15:44;;;;;;;;;60.00;43.25;;;;;10.04;42.59;102218.28;5093565;27;45403;-76
2022/03/01 09:18:09;;;;;;;;;44.25;36.75;;;;;10.09;42.89;102206.97;5097658;27;45507;-76
2022/03/01 09:20:35;;;;;;;;;53.25;40.75;;;;;10.09;43.34;102200.72;5078125;27;48088;-79
2022/03/01 09:23:02;;;;;;;;;50.00;36.50;;;;;9.98;42.97;102170.78;5097121;27;45465;-77
2022/03/01 09:25:28;;;;;;;;;58.00;42.25;;;;;9.77;42.56;102122.56;5109902;27;45379;-81
2022/03/01 09:27:53;;;;;;;;;50.50;41.50;;;;;10.27;43.32;102200.75;5097598;27;45558;-81
2022/03/01 09:30:19;;;;;;;;;50.75;39.75;;;;;10.35;42.62;102194.09;5097427;27;46440;-79
2022/03/01 09:32:45;;;;;;;;;47.75;37.50;;;;;10.36;42.94;102181.63;5097948;27;45386;-74
2022/03/01 09:35:12;;;;;;;;;49.00;37.00;;;;;10.41;42.35;102191.75;5102499;27;45362;-82
2022/03/01 09:37:38;;;;;;;;;44.75;38.75;;;;;10.46;42.29;102184.88;5116817;27;45401;-82
2022/03/01 09:40:06;;;;;;;;;51.00;38.75;;;;;10.46;41.86;102187.53;5116406;27;46336;-81
2022/03/01 09:42:32;;;;;;;;;46.50;36.50;;;;;10.28;42.12;102143.84;5116410;27;45565;-80
2022/03/01 09:44:59;;;;;;;;;46.50;37.00;;;;;10.55;41.99;102199.53;5112387;27;45352;-74
2022/03/01 09:47:25;;;;;;;;;52.00;39.00;;;;;10.10;41.87;102085.09;5097149;27;45383;-77
2022/03/01 09:49:51;;;;;;;;;50.75;40.25;;;;;10.64;41.92;102174.16;5095709;27;46041;-81
2022/03/01 09:52:18;;;;;;;;;41.00;36.50;;;;;10.69;41.67;102180.66;5094906;27;45626;-82
2022/03/01 09:54:44;;;;;;;;;53.00;38.25;;;;;10.76;41.65;102171.16;5098298;27;45420;-80
2022/03/01 09:57:14;;;;;;;;;50.75;39.75;;;;;9.97;42.01;102027.47;5099249;27;45437;-77
2022/03/01 09:59:39;;;;;;;;;44.25;35.00;;;;;10.84;41.50;102159.09;5114952;27;45619;-81
2022/03/01 10:02:04;;;;;;;;;54.50;38.75;;;;;11.06;41.19;102186.84;5115500;27;45389;-79
2022/03/01 10:04:30;;;;;;;;;51.75;37.50;;;;;11.24;41.26;102193.06;5115574;27;45344;-75
2022/03/01 10:06:55;;;;;;;;;54.25;42.25;;;;;11.31;40.93;102196.94;5115337;27;45338;-79
2022/03/01 10:09:23;;;;;;;;;50.50;37.50;;;;;11.28;41.15;102194.13;5115351;27;46229;-78
2022/03/01 10:11:49;;;;;;;;;47.50;34.75;;;;;11.41;40.42;102200.97;5083834;27;45547;-79
2022/03/01 10:14:25;;;;;;;;;45.50;36.50;;;;;11.46;40.18;102175.31;5101515;27;45291;-75
2022/03/01 10:16:51;;;;;;;;;44.00;35.75;;;;;11.51;40.09;102165.75;5098042;27;45251;-78
2022/03/01 10:19:19;;;;;;;;;51.50;37.75;;;;;11.52;40.27;102159.56;5095604;27;45862;-77
2022/03/01 10:21:56;;;;;;;;;50.25;40.25;;;;;11.84;39.88;102199.31;5090486;27;45321;-75
2022/03/01 10:24:21;;;;;;;;;51.75;38.25;;;;;11.80;39.60;102183.13;5095305;27;45479;-76
2022/03/01 10:26:49;;;;;;;;;42.50;37.50;;;;;11.91;39.72;102194.34;5095436;27;45403;-78
2022/03/01 10:29:15;;;;;;;;;55.75;41.25;;;;;11.80;40.03;102169.72;5111651;27;46473;-79
2022/03/01 10:31:41;;;;;;;;;48.25;38.00;;;;;11.88;39.13;102169.13;5114764;27;45532;-76
2022/03/01 10:34:10;;;;;;;;;53.25;41.25;;;;;11.97;39.92;102156.19;5114818;27;45324;-79
2022/03/01 10:36:47;;;;;;;;;53.25;42.00;;;;;12.19;39.51;102162.47;5115285;27;45521;-76
2022/03/01 10:39:17;;;;;;;;;55.75;44.50;;;;;12.23;38.74;102154.63;5114798;27;46454;-78
2022/03/01 10:41:45;;;;;;;;;50.00;38.50;;;;;12.48;38.84;102174.41;5114674;27;45463;-79
2022/03/01 10:44:29;;;;;;;;;57.00;42.50;;;;;12.41;39.01;102142.88;5114633;27;45536;-77
2022/03/01 10:47:01;;;;;;;;;55.50;42.50;;;;;12.58;38.76;102163.22;5114575;27;45486;-76
2022/03/01 10:49:32;;;;;;;;;58.00;45.00;;;;;12.53;38.24;102143.34;5114235;27;45526;-77
2022/03/01 10:52:03;;;;;;;;;45.00;37.25;;;;;12.67;37.97;102171.66;5100019;27;45559;-77
2022/03/01 10:54:38;;;;;;;;;47.00;36.25;;;;;12.68;38.23;102168.09;5094741;27;45305;-78
2022/03/01 10:57:06;;;;;;;;;49.00;39.75;;;;;12.69;37.74;102177.06;5076461;27;45350;-73
2022/03/01 10:59:34;;;;;;;;;49.25;37.00;;;;;12.57;37.56;102139.94;5089312;27;48434;-76
2022/03/01 11:02:00;;;;;;;;;40.25;33.50;;;;;12.66;38.57;102167.13;5097260;27;45626;-76
2022/03/01 11:04:26;;;;;;;;;57.50;44.00;;;;;12.59;38.53;102140.00;5113875;27;45582;-77
2022/03/01 11:06:58;;;;;;;;;49.75;37.25;;;;;12.72;37.69;102150.38;5114443;27;45469;-75
2022/03/01 11:09:26;;;;;;;;;42.50;33.75;;;;;12.82;38.16;102148.97;5082422;27;48475;-80
2022/03/01 11:11:53;;;;;;;;;39.25;33.50;;;;;12.90;37.15;102156.47;5114951;27;45309;-79